sensor_id;sensor_type;location;lat;lon;timestamp;pressure;altitude;pressure_sealevel;temperature;humidity
58622;BME280;44389;51.578;5.456;2023-05-20T00:00:19;102246.16;;;10.50;86.43
58622;BME280;44389;51.578;5.456;2023-05-20T00:02:44;102241.81;;;10.49;86.20
58622;BME280;44389;51.578;5.456;2023-05-20T00:05:10;102236.25;;;10.41;87.05
58622;BME280;44389;51.578;5.456;2023-05-20T00:07:35;102240.59;;;10.42;86.71
58622;BME280;44389;51.578;5.456;2023-05-20T00:10:00;102231.81;;;10.38;87.17
58622;BME280;44389;51.578;5.456;2023-05-20T00:12:25;102232.19;;;10.30;88.31
58622;BME280;44389;51.578;5.456;2023-05-20T00:14:51;102237.19;;;10.27;88.56
58622;BME280;44389;51.578;5.456;2023-05-20T00:17:16;102236.13;;;10.23;88.82
58622;BME280;44389;51.578;5.456;2023-05-20T00:19:41;102246.09;;;10.17;89.34
58622;BME280;44389;51.578;5.456;2023-05-20T00:22:07;102244.09;;;10.11;90.04
58622;BME280;44389;51.578;5.456;2023-05-20T00:24:32;102246.47;;;10.08;90.27
58622;BME280;44389;51.578;5.456;2023-05-20T00:26:57;102240.44;;;10.08;90.46
58622;BME280;44389;51.578;5.456;2023-05-20T00:29:22;102240.28;;;10.04;90.59
58622;BME280;44389;51.578;5.456;2023-05-20T00:31:48;102239.88;;;9.97;91.31
58622;BME280;44389;51.578;5.456;2023-05-20T00:34:13;102235.25;;;9.91;91.72
58622;BME280;44389;51.578;5.456;2023-05-20T00:36:38;102234.91;;;9.85;92.30
58622;BME280;44389;51.578;5.456;2023-05-20T00:39:04;102233.34;;;9.87;92.17
58622;BME280;44389;51.578;5.456;2023-05-20T00:41:29;102234.31;;;9.89;91.88
58622;BME280;44389;51.578;5.456;2023-05-20T00:43:55;102236.63;;;9.84;92.58
58622;BME280;44389;51.578;5.456;2023-05-20T00:46:22;102235.63;;;9.82;93.09
58622;BME280;44389;51.578;5.456;2023-05-20T00:48:48;102227.91;;;9.82;93.05
58622;BME280;44389;51.578;5.456;2023-05-20T00:51:14;102227.91;;;9.82;93.01
58622;BME280;44389;51.578;5.456;2023-05-20T00:53:40;102229.34;;;9.77;93.21
58622;BME280;44389;51.578;5.456;2023-05-20T00:56:07;102228.41;;;9.75;93.61
58622;BME280;44389;51.578;5.456;2023-05-20T00:58:33;102226.47;;;9.71;93.86
58622;BME280;44389;51.578;5.456;2023-05-20T01:01:00;102218.56;;;9.68;94.09
58622;BME280;44389;51.578;5.456;2023-05-20T01:03:26;102221.13;;;9.68;94.05
58622;BME280;44389;51.578;5.456;2023-05-20T01:05:52;102221.03;;;9.66;94.07
58622;BME280;44389;51.578;5.456;2023-05-20T01:08:17;102220.16;;;9.66;94.62
58622;BME280;44389;51.578;5.456;2023-05-20T01:10:45;102231.91;;;9.61;95.21
58622;BME280;44389;51.578;5.456;2023-05-20T01:13:15;102223.91;;;9.56;95.79
58622;BME280;44389;51.578;5.456;2023-05-20T01:15:42;102222.84;;;9.52;96.03
58622;BME280;44389;51.578;5.456;2023-05-20T01:18:12;102221.06;;;9.51;95.94
58622;BME280;44389;51.578;5.456;2023-05-20T01:20:43;102212.38;;;9.49;96.31
58622;BME280;44389;51.578;5.456;2023-05-20T01:23:11;102219.47;;;9.53;95.79
58622;BME280;44389;51.578;5.456;2023-05-20T01:25:36;102213.97;;;9.47;96.27
58622;BME280;44389;51.578;5.456;2023-05-20T01:28:01;102210.25;;;9.42;96.84
58622;BME280;44389;51.578;5.456;2023-05-20T01:30:31;102212.69;;;9.39;97.62
58622;BME280;44389;51.578;5.456;2023-05-20T01:33:01;102214.91;;;9.33;97.97
58622;BME280;44389;51.578;5.456;2023-05-20T01:35:27;102209.59;;;9.30;97.94
58622;BME280;44389;51.578;5.456;2023-05-20T01:37:54;102209.41;;;9.27;98.67
58622;BME280;44389;51.578;5.456;2023-05-20T01:40:22;102212.75;;;9.26;98.54
58622;BME280;44389;51.578;5.456;2023-05-20T01:42:48;102211.00;;;9.25;98.72
58622;BME280;44389;51.578;5.456;2023-05-20T01:45:17;102197.25;;;9.24;98.63
58622;BME280;44389;51.578;5.456;2023-05-20T01:47:46;102209.66;;;9.16;99.54
58622;BME280;44389;51.578;5.456;2023-05-20T01:50:11;102210.56;;;9.17;99.28
58622;BME280;44389;51.578;5.456;2023-05-20T01:52:36;102210.47;;;9.15;99.69
58622;BME280;44389;51.578;5.456;2023-05-20T01:55:02;102205.44;;;9.17;99.71
58622;BME280;44389;51.578;5.456;2023-05-20T01:57:27;102198.44;;;9.14;100.00
58622;BME280;44389;51.578;5.456;2023-05-20T01:59:53;102200.00;;;9.12;99.91
58622;BME280;44389;51.578;5.456;2023-05-20T02:02:18;102197.28;;;9.09;100.00
58622;BME280;44389;51.578;5.456;2023-05-20T02:04:44;102196.13;;;9.04;100.00
58622;BME280;44389;51.578;5.456;2023-05-20T02:07:17;102199.28;;;9.00;100.00
58622;BME280;44389;51.578;5.456;2023-05-20T02:09:43;102199.50;;;9.03;100.00
58622;BME280;44389;51.578;5.456;2023-05-20T02:12:08;102192.72;;;9.05;100.00
58622;BME280;44389;51.578;5.456;2023-05-20T02:14:35;102193.34;;;9.01;100.00
58622;BME280;44389;51.578;5.456;2023-05-20T02:17:00;102192.41;;;8.99;100.00
58622;BME280;44389;51.578;5.456;2023-05-20T02:19:26;102193.97;;;8.97;100.00
58622;BME280;44389;51.578;5.456;2023-05-20T02:21:51;102191.06;;;8.90;100.00
58622;BME280;44389;51.578;5.456;2023-05-20T02:24:16;102186.69;;;8.89;100.00
58622;BME280;44389;51.578;5.456;2023-05-20T02:26:42;102190.09;;;8.88;100.00
58622;BME280;44389;51.578;5.456;2023-05-20T02:29:09;102188.06;;;8.98;99.66
58622;BME280;44389;51.578;5.456;2023-05-20T02:31:35;102187.59;;;8.90;100.00
58622;BME280;44389;51.578;5.456;2023-05-20T02:34:00;102184.75;;;8.85;100.00
58622;BME280;44389;51.578;5.456;2023-05-20T02:36:25;102181.22;;;8.83;100.00
58622;BME280;44389;51.578;5.456;2023-05-20T02:38:52;102180.94;;;8.79;100.00
58622;BME280;44389;51.578;5.456;2023-05-20T02:41:21;102183.81;;;8.83;100.00
58622;BME280;44389;51.578;5.456;2023-05-20T02:43:46;102182.66;;;8.78;100.00
58622;BME280;44389;51.578;5.456;2023-05-20T02:46:11;102192.94;;;8.78;100.00
58622;BME280;44389;51.578;5.456;2023-05-20T02:48:36;102187.06;;;8.81;100.00
58622;BME280;44389;51.578;5.456;2023-05-20T02:51:02;102191.31;;;8.80;100.00
58622;BME280;44389;51.578;5.456;2023-05-20T02:53:27;102180.94;;;8.79;100.00
58622;BME280;44389;51.578;5.456;2023-05-20T02:55:52;102182.66;;;8.78;100.00
58622;BME280;44389;51.578;5.456;2023-05-20T02:58:18;102178.91;;;8.73;100.00
58622;BME280;44389;51.578;5.456;2023-05-20T03:00:50;102181.28;;;8.70;100.00
58622;BME280;44389;51.578;5.456;2023-05-20T03:03:15;102177.06;;;8.70;100.00
58622;BME280;44389;51.578;5.456;2023-05-20T03:05:41;102180.34;;;8.68;100.00
58622;BME280;44389;51.578;5.456;2023-05-20T03:08:10;102181.28;;;8.70;100.00
58622;BME280;44389;51.578;5.456;2023-05-20T03:10:36;102180.00;;;8.77;100.00
58622;BME280;44389;51.578;5.456;2023-05-20T03:13:03;102176.44;;;8.75;100.00
58622;BME280;44389;51.578;5.456;2023-05-20T03:15:29;102179.38;;;8.81;100.00
58622;BME280;44389;51.578;5.456;2023-05-20T03:17:54;102174.94;;;8.78;100.00
58622;BME280;44389;51.578;5.456;2023-05-20T03:20:20;102181.19;;;8.68;100.00
58622;BME280;44389;51.578;5.456;2023-05-20T03:22:45;102177.84;;;8.69;100.00
58622;BME280;44389;51.578;5.456;2023-05-20T03:25:10;102170.47;;;8.61;100.00
58622;BME280;44389;51.578;5.456;2023-05-20T03:27:36;102179.09;;;8.61;100.00
58622;BME280;44389;51.578;5.456;2023-05-20T03:30:02;102183.25;;;8.59;100.00
58622;BME280;44389;51.578;5.456;2023-05-20T03:32:29;102185.97;;;8.62;100.00
58622;BME280;44389;51.578;5.456;2023-05-20T03:34:54;102184.22;;;8.61;100.00
58622;BME280;44389;51.578;5.456;2023-05-20T03:37:22;102188.03;;;8.68;100.00
58622;BME280;44389;51.578;5.456;2023-05-20T03:39:47;102180.59;;;8.57;100.00
58622;BME280;44389;51.578;5.456;2023-05-20T03:42:12;102185.53;;;8.54;100.00
58622;BME280;44389;51.578;5.456;2023-05-20T03:44:37;102176.22;;;8.56;100.00
58622;BME280;44389;51.578;5.456;2023-05-20T03:47:03;102182.25;;;8.57;100.00
58622;BME280;44389;51.578;5.456;2023-05-20T03:49:28;102171.97;;;8.57;100.00
58622;BME280;44389;51.578;5.456;2023-05-20T03:51:53;102175.38;;;8.56;100.00
58622;BME280;44389;51.578;5.456;2023-05-20T03:54:19;102178.00;;;8.57;100.00
58622;BME280;44389;51.578;5.456;2023-05-20T03:56:44;102180.59;;;8.57;100.00
58622;BME280;44389;51.578;5.456;2023-05-20T03:59:11;102176.22;;;8.56;100.00
58622;BME280;44389;51.578;5.456;2023-05-20T04:01:36;102178.81;;;8.56;100.00
58622;BME280;44389;51.578;5.456;2023-05-20T04:04:02;102176.41;;;8.60;100.00
58622;BME280;44389;51.578;5.456;2023-05-20T04:06:27;102169.50;;;8.59;100.00
58622;BME280;44389;51.578;5.456;2023-05-20T04:08:52;102173.75;;;8.58;100.00
58622;BME280;44389;51.578;5.456;2023-05-20T04:11:18;102175.44;;;8.57;100.00
58622;BME280;44389;51.578;5.456;2023-05-20T04:13:43;102169.59;;;8.60;100.00
58622;BME280;44389;51.578;5.456;2023-05-20T04:16:09;102169.84;;;8.65;100.00
58622;BME280;44389;51.578;5.456;2023-05-20T04:18:34;102170.22;;;8.71;100.00
58622;BME280;44389;51.578;5.456;2023-05-20T04:21:03;102181.56;;;8.75;100.00
58622;BME280;44389;51.578;5.456;2023-05-20T04:23:28;102179.09;;;8.76;100.00
58622;BME280;44389;51.578;5.456;2023-05-20T04:25:53;102182.66;;;8.78;100.00
58622;BME280;44389;51.578;5.456;2023-05-20T04:28:19;102179.44;;;8.82;100.00
58622;BME280;44389;51.578;5.456;2023-05-20T04:30:48;102184.75;;;8.85;100.00
58622;BME280;44389;51.578;5.456;2023-05-20T04:33:14;102179.69;;;8.87;100.00
58622;BME280;44389;51.578;5.456;2023-05-20T04:35:40;102185.03;;;8.90;100.00
58622;BME280;44389;51.578;5.456;2023-05-20T04:38:06;102181.75;;;8.93;100.00
58622;BME280;44389;51.578;5.456;2023-05-20T04:40:31;102183.00;;;8.99;100.00
58622;BME280;44389;51.578;5.456;2023-05-20T04:42:58;102182.13;;;8.99;100.00
58622;BME280;44389;51.578;5.456;2023-05-20T04:45:24;102174.91;;;9.08;100.00
58622;BME280;44389;51.578;5.456;2023-05-20T04:47:50;102175.88;;;9.10;100.00
58622;BME280;44389;51.578;5.456;2023-05-20T04:50:17;102176.22;;;9.16;100.00
58622;BME280;44389;51.578;5.456;2023-05-20T04:52:43;102187.75;;;9.23;100.00
58622;BME280;44389;51.578;5.456;2023-05-20T04:55:10;102182.25;;;9.32;100.00
58622;BME280;44389;51.578;5.456;2023-05-20T04:57:39;102188.81;;;9.42;100.00
58622;BME280;44389;51.578;5.456;2023-05-20T05:00:06;102193.59;;;9.50;100.00
58622;BME280;44389;51.578;5.456;2023-05-20T05:02:33;102183.78;;;9.60;100.00
58622;BME280;44389;51.578;5.456;2023-05-20T05:04:58;102184.28;;;9.69;100.00
58622;BME280;44389;51.578;5.456;2023-05-20T05:07:24;102182.84;;;9.74;100.00
58622;BME280;44389;51.578;5.456;2023-05-20T05:09:49;102184.06;;;9.81;100.00
58622;BME280;44389;51.578;5.456;2023-05-20T05:12:14;102176.75;;;9.88;100.00
58622;BME280;44389;51.578;5.456;2023-05-20T05:14:40;102172.00;;;9.96;100.00
58622;BME280;44389;51.578;5.456;2023-05-20T05:17:05;102166.41;;;10.03;100.00
58622;BME280;44389;51.578;5.456;2023-05-20T05:19:30;102171.16;;;10.12;100.00
58622;BME280;44389;51.578;5.456;2023-05-20T05:21:56;102170.66;;;10.19;100.00
58622;BME280;44389;51.578;5.456;2023-05-20T05:24:21;102169.38;;;10.28;100.00
58622;BME280;44389;51.578;5.456;2023-05-20T05:26:46;102165.53;;;10.36;100.00
58622;BME280;44389;51.578;5.456;2023-05-20T05:29:11;102166.00;;;10.45;100.00
58622;BME280;44389;51.578;5.456;2023-05-20T05:31:37;102161.09;;;10.50;100.00
58622;BME280;44389;51.578;5.456;2023-05-20T05:34:02;102172.81;;;10.61;100.00
58622;BME280;44389;51.578;5.456;2023-05-20T05:36:27;102167.97;;;10.67;100.00
58622;BME280;44389;51.578;5.456;2023-05-20T05:38:52;102166.69;;;10.76;100.00
58622;BME280;44389;51.578;5.456;2023-05-20T05:41:18;102166.41;;;10.87;100.00
58622;BME280;44389;51.578;5.456;2023-05-20T05:43:43;102167.66;;;10.96;100.00
58622;BME280;44389;51.578;5.456;2023-05-20T05:46:08;102157.78;;;11.05;100.00
58622;BME280;44389;51.578;5.456;2023-05-20T05:48:35;102170.19;;;11.12;100.00
58622;BME280;44389;51.578;5.456;2023-05-20T05:51:01;102168.09;;;11.23;100.00
58622;BME280;44389;51.578;5.456;2023-05-20T05:53:26;102171.16;;;11.32;100.00
58622;BME280;44389;51.578;5.456;2023-05-20T05:55:51;102161.84;;;11.36;99.50
58622;BME280;44389;51.578;5.456;2023-05-20T05:58:17;102160.81;;;11.50;99.54
58622;BME280;44389;51.578;5.456;2023-05-20T06:00:42;102157.91;;;11.62;99.28
58622;BME280;44389;51.578;5.456;2023-05-20T06:03:07;102158.19;;;11.68;96.96
58622;BME280;44389;51.578;5.456;2023-05-20T06:05:32;102164.53;;;11.75;95.71
58622;BME280;44389;51.578;5.456;2023-05-20T06:07:58;102166.66;;;11.84;95.90
58622;BME280;44389;51.578;5.456;2023-05-20T06:10:23;102163.56;;;11.93;95.91
58622;BME280;44389;51.578;5.456;2023-05-20T06:12:48;102167.56;;;12.04;96.35
58622;BME280;44389;51.578;5.456;2023-05-20T06:15:14;102161.25;;;12.17;96.31
58622;BME280;44389;51.578;5.456;2023-05-20T06:17:39;102168.66;;;12.29;94.23
58622;BME280;44389;51.578;5.456;2023-05-20T06:20:05;102166.47;;;12.38;93.77
58622;BME280;44389;51.578;5.456;2023-05-20T06:22:30;102161.56;;;12.44;93.55
58622;BME280;44389;51.578;5.456;2023-05-20T06:24:56;102149.97;;;12.56;92.94
58622;BME280;44389;51.578;5.456;2023-05-20T06:27:24;102154.66;;;12.64;92.91
58622;BME280;44389;51.578;5.456;2023-05-20T06:29:49;102150.63;;;12.71;93.20
58622;BME280;44389;51.578;5.456;2023-05-20T06:32:14;102145.13;;;12.84;92.57
58622;BME280;44389;51.578;5.456;2023-05-20T06:34:40;102139.66;;;12.98;92.52
58622;BME280;44389;51.578;5.456;2023-05-20T06:37:05;102136.16;;;12.97;88.47
58622;BME280;44389;51.578;5.456;2023-05-20T06:39:30;102131.94;;;12.99;87.88
58622;BME280;44389;51.578;5.456;2023-05-20T06:41:56;102128.94;;;13.11;89.23
58622;BME280;44389;51.578;5.456;2023-05-20T06:44:21;102133.97;;;13.29;91.06
58622;BME280;44389;51.578;5.456;2023-05-20T06:46:46;102128.16;;;13.35;88.34
58622;BME280;44389;51.578;5.456;2023-05-20T06:49:11;102129.25;;;13.40;86.76
58622;BME280;44389;51.578;5.456;2023-05-20T06:51:37;102135.94;;;13.58;86.93
58622;BME280;44389;51.578;5.456;2023-05-20T06:54:02;102130.44;;;13.71;87.23
58622;BME280;44389;51.578;5.456;2023-05-20T06:56:27;102124.63;;;13.78;85.25
58622;BME280;44389;51.578;5.456;2023-05-20T06:58:54;102130.22;;;13.89;84.46
58622;BME280;44389;51.578;5.456;2023-05-20T07:01:19;102122.16;;;14.06;84.36
58622;BME280;44389;51.578;5.456;2023-05-20T07:03:45;102119.81;;;14.13;81.33
58622;BME280;44389;51.578;5.456;2023-05-20T07:06:10;102119.81;;;14.13;77.52
58622;BME280;44389;51.578;5.456;2023-05-20T07:08:35;102119.63;;;14.33;80.13
58622;BME280;44389;51.578;5.456;2023-05-20T07:11:00;102118.81;;;14.34;77.05
58622;BME280;44389;51.578;5.456;2023-05-20T07:13:26;102120.81;;;14.41;75.40
58622;BME280;44389;51.578;5.456;2023-05-20T07:15:51;102118.47;;;14.49;76.52
58622;BME280;44389;51.578;5.456;2023-05-20T07:18:17;102117.78;;;14.55;74.46
58622;BME280;44389;51.578;5.456;2023-05-20T07:20:43;102117.34;;;14.67;76.60
58622;BME280;44389;51.578;5.456;2023-05-20T07:23:08;102110.91;;;14.81;76.04
58622;BME280;44389;51.578;5.456;2023-05-20T07:25:34;102102.13;;;15.05;76.05
58622;BME280;44389;51.578;5.456;2023-05-20T07:27:59;102101.44;;;15.10;71.60
58622;BME280;44389;51.578;5.456;2023-05-20T07:30:25;102097.50;;;15.23;72.24
58622;BME280;44389;51.578;5.456;2023-05-20T07:32:51;102106.44;;;15.33;74.10
58622;BME280;44389;51.578;5.456;2023-05-20T07:35:16;102106.50;;;15.35;69.29
58622;BME280;44389;51.578;5.456;2023-05-20T07:37:42;102105.97;;;15.46;69.92
58622;BME280;44389;51.578;5.456;2023-05-20T07:40:07;102108.56;;;15.46;69.80
58622;BME280;44389;51.578;5.456;2023-05-20T07:42:33;102104.28;;;15.47;67.37
58622;BME280;44389;51.578;5.456;2023-05-20T07:44:59;102104.38;;;15.52;68.54
58622;BME280;44389;51.578;5.456;2023-05-20T07:47:24;102094.31;;;15.62;69.20
58622;BME280;44389;51.578;5.456;2023-05-20T07:49:50;102095.19;;;15.63;66.14
58622;BME280;44389;51.578;5.456;2023-05-20T07:52:15;102102.34;;;15.70;66.20
58622;BME280;44389;51.578;5.456;2023-05-20T07:54:40;102092.69;;;15.66;64.74
58622;BME280;44389;51.578;5.456;2023-05-20T07:57:05;102090.25;;;15.72;64.71
58622;BME280;44389;51.578;5.456;2023-05-20T07:59:31;102105.91;;;15.74;63.39
58622;BME280;44389;51.578;5.456;2023-05-20T08:01:57;102098.13;;;15.74;65.28
58622;BME280;44389;51.578;5.456;2023-05-20T08:04:22;102088.78;;;15.80;64.11
58622;BME280;44389;51.578;5.456;2023-05-20T08:06:47;102082.25;;;15.95;65.15
58622;BME280;44389;51.578;5.456;2023-05-20T08:09:13;102093.66;;;16.00;63.65
58622;BME280;44389;51.578;5.456;2023-05-20T08:11:39;102083.25;;;16.00;61.56
58622;BME280;44389;51.578;5.456;2023-05-20T08:14:04;102086.94;;;16.08;64.45
58622;BME280;44389;51.578;5.456;2023-05-20T08:16:30;102088.09;;;16.20;64.10
58622;BME280;44389;51.578;5.456;2023-05-20T08:18:55;102080.31;;;16.20;62.41
58622;BME280;44389;51.578;5.456;2023-05-20T08:21:20;102080.47;;;16.26;61.69
58622;BME280;44389;51.578;5.456;2023-05-20T08:23:47;102074.50;;;16.30;62.07
58622;BME280;44389;51.578;5.456;2023-05-20T08:26:12;102077.50;;;16.45;63.63
58622;BME280;44389;51.578;5.456;2023-05-20T08:28:38;102070.88;;;16.58;62.48
58622;BME280;44389;51.578;5.456;2023-05-20T08:31:03;102067.34;;;16.56;60.25
58622;BME280;44389;51.578;5.456;2023-05-20T08:33:29;102064.78;;;16.58;60.63
58622;BME280;44389;51.578;5.456;2023-05-20T08:35:54;102066.50;;;16.57;59.58
58622;BME280;44389;51.578;5.456;2023-05-20T08:38:20;102063.31;;;16.69;62.06
58622;BME280;44389;51.578;5.456;2023-05-20T08:40:45;102070.50;;;16.79;60.55
58622;BME280;44389;51.578;5.456;2023-05-20T08:43:15;102063.84;;;16.91;57.34
58622;BME280;44389;51.578;5.456;2023-05-20T08:45:40;102062.38;;;17.02;56.79
58622;BME280;44389;51.578;5.456;2023-05-20T08:48:06;102059.31;;;17.22;58.96
58622;BME280;44389;51.578;5.456;2023-05-20T08:50:32;102065.00;;;17.43;56.61
58622;BME280;44389;51.578;5.456;2023-05-20T08:52:58;102057.88;;;17.36;55.71
58622;BME280;44389;51.578;5.456;2023-05-20T08:55:25;102062.50;;;17.50;56.62
58622;BME280;44389;51.578;5.456;2023-05-20T08:57:51;102057.47;;;17.57;56.07
58622;BME280;44389;51.578;5.456;2023-05-20T09:00:22;102063.66;;;17.64;54.67
58622;BME280;44389;51.578;5.456;2023-05-20T09:02:51;102066.91;;;17.52;53.32
58622;BME280;44389;51.578;5.456;2023-05-20T09:05:17;102059.25;;;17.60;54.69
58622;BME280;44389;51.578;5.456;2023-05-20T09:07:43;102055.28;;;17.81;56.05
58622;BME280;44389;51.578;5.456;2023-05-20T09:10:08;102045.84;;;17.86;54.81
58622;BME280;44389;51.578;5.456;2023-05-20T09:12:35;102054.75;;;17.97;52.22
58622;BME280;44389;51.578;5.456;2023-05-20T09:15:00;102058.78;;;17.83;51.85
58622;BME280;44389;51.578;5.456;2023-05-20T09:17:26;102050.16;;;17.85;51.18
58622;BME280;44389;51.578;5.456;2023-05-20T09:19:54;102059.47;;;17.72;51.28
58622;BME280;44389;51.578;5.456;2023-05-20T09:22:24;102046.59;;;17.82;51.62
58622;BME280;44389;51.578;5.456;2023-05-20T09:24:50;102043.31;;;17.92;52.77
58622;BME280;44389;51.578;5.456;2023-05-20T09:27:16;102049.63;;;18.02;50.50
58622;BME280;44389;51.578;5.456;2023-05-20T09:29:42;102050.59;;;18.08;50.89
58622;BME280;44389;51.578;5.456;2023-05-20T09:32:12;102060.91;;;18.02;49.26
58622;BME280;44389;51.578;5.456;2023-05-20T09:34:37;102042.88;;;18.13;50.75
58622;BME280;44389;51.578;5.456;2023-05-20T09:37:05;102045.41;;;18.10;49.79
58622;BME280;44389;51.578;5.456;2023-05-20T09:39:33;102038.53;;;18.14;50.73
58622;BME280;44389;51.578;5.456;2023-05-20T09:42:04;102045.75;;;18.30;51.46
58622;BME280;44389;51.578;5.456;2023-05-20T09:44:32;102040.88;;;18.50;50.02
58622;BME280;44389;51.578;5.456;2023-05-20T09:46:58;102044.59;;;18.66;49.27
58622;BME280;44389;51.578;5.456;2023-05-20T09:49:25;102033.56;;;18.86;48.72
58622;BME280;44389;51.578;5.456;2023-05-20T09:51:51;102036.63;;;19.17;49.45
58622;BME280;44389;51.578;5.456;2023-05-20T09:54:18;102044.09;;;19.58;48.74
58622;BME280;44389;51.578;5.456;2023-05-20T09:56:45;102035.34;;;19.56;48.17
58622;BME280;44389;51.578;5.456;2023-05-20T09:59:13;102036.06;;;19.42;47.81
58622;BME280;44389;51.578;5.456;2023-05-20T10:01:39;102029.78;;;19.25;47.36
58622;BME280;44389;51.578;5.456;2023-05-20T10:04:06;102017.00;;;19.50;47.27
58622;BME280;44389;51.578;5.456;2023-05-20T10:09:27;102022.16;;;20.34;46.49
58622;BME280;44389;51.578;5.456;2023-05-20T10:12:18;102016.59;;;21.19;44.48
58622;BME280;44389;51.578;5.456;2023-05-20T10:17:20;102012.38;;;21.58;42.00
58622;BME280;44389;51.578;5.456;2023-05-20T10:19:49;102004.53;;;22.31;40.03
58622;BME280;44389;51.578;5.456;2023-05-20T10:22:28;102014.00;;;23.14;40.54
58622;BME280;44389;51.578;5.456;2023-05-20T10:24:58;102012.19;;;23.34;38.72
58622;BME280;44389;51.578;5.456;2023-05-20T10:27:24;102006.78;;;23.59;35.94
58622;BME280;44389;51.578;5.456;2023-05-20T10:29:51;102006.75;;;23.62;36.69
58622;BME280;44389;51.578;5.456;2023-05-20T10:32:30;102003.34;;;23.46;37.86
58622;BME280;44389;51.578;5.456;2023-05-20T10:35:03;101996.06;;;23.92;36.52
58622;BME280;44389;51.578;5.456;2023-05-20T10:37:31;101986.56;;;23.61;36.37
58622;BME280;44389;51.578;5.456;2023-05-20T10:40:11;101994.66;;;23.29;37.81
58622;BME280;44389;51.578;5.456;2023-05-20T10:42:37;101980.31;;;23.79;36.26
58622;BME280;44389;51.578;5.456;2023-05-20T10:45:04;101995.41;;;24.64;34.99
58622;BME280;44389;51.578;5.456;2023-05-20T10:47:30;101982.13;;;24.72;34.37
58622;BME280;44389;51.578;5.456;2023-05-20T10:49:55;101980.56;;;25.27;34.53
58622;BME280;44389;51.578;5.456;2023-05-20T10:52:23;101982.44;;;25.82;33.69
58622;BME280;44389;51.578;5.456;2023-05-20T10:54:56;101995.41;;;25.38;34.20
58622;BME280;44389;51.578;5.456;2023-05-20T10:57:22;101979.19;;;24.98;34.07
58622;BME280;44389;51.578;5.456;2023-05-20T10:59:48;101981.81;;;25.00;33.73
58622;BME280;44389;51.578;5.456;2023-05-20T11:02:15;101975.66;;;24.17;33.97
58622;BME280;44389;51.578;5.456;2023-05-20T11:04:43;101981.88;;;24.10;34.77
58622;BME280;44389;51.578;5.456;2023-05-20T11:07:09;101968.25;;;24.55;34.40
58622;BME280;44389;51.578;5.456;2023-05-20T11:09:34;101958.38;;;24.74;35.10
58622;BME280;44389;51.578;5.456;2023-05-20T11:12:00;101966.91;;;24.94;33.59
58622;BME280;44389;51.578;5.456;2023-05-20T11:14:29;101959.16;;;24.84;35.51
58622;BME280;44389;51.578;5.456;2023-05-20T11:16:58;101963.50;;;25.53;34.23
58622;BME280;44389;51.578;5.456;2023-05-20T11:19:27;101952.16;;;24.81;35.17
58622;BME280;44389;51.578;5.456;2023-05-20T11:21:52;101951.22;;;24.85;35.87
58622;BME280;44389;51.578;5.456;2023-05-20T11:24:25;101952.38;;;23.61;36.10
58622;BME280;44389;51.578;5.456;2023-05-20T11:26:52;101956.34;;;22.67;36.47
58622;BME280;44389;51.578;5.456;2023-05-20T11:29:18;101963.38;;;22.68;36.77
58622;BME280;44389;51.578;5.456;2023-05-20T11:31:44;101952.91;;;22.25;38.23
58622;BME280;44389;51.578;5.456;2023-05-20T11:34:09;101957.28;;;21.84;38.57
58622;BME280;44389;51.578;5.456;2023-05-20T11:36:40;101955.56;;;21.79;40.56
58622;BME280;44389;51.578;5.456;2023-05-20T11:39:08;101958.00;;;21.20;39.62
58622;BME280;44389;51.578;5.456;2023-05-20T11:41:34;101945.72;;;21.00;39.76
58622;BME280;44389;51.578;5.456;2023-05-20T11:44:00;101940.50;;;20.96;40.21
58622;BME280;44389;51.578;5.456;2023-05-20T11:46:26;101949.16;;;20.78;41.01
58622;BME280;44389;51.578;5.456;2023-05-20T11:48:55;101954.53;;;21.21;40.31
58622;BME280;44389;51.578;5.456;2023-05-20T11:51:26;101939.41;;;23.33;37.57
58622;BME280;44389;51.578;5.456;2023-05-20T11:53:51;101938.03;;;24.03;35.37
58622;BME280;44389;51.578;5.456;2023-05-20T11:56:16;101938.91;;;24.84;34.60
58622;BME280;44389;51.578;5.456;2023-05-20T11:58:42;101937.22;;;24.80;33.08
58622;BME280;44389;51.578;5.456;2023-05-20T12:01:08;101940.25;;;24.44;33.54
58622;BME280;44389;51.578;5.456;2023-05-20T12:03:33;101930.34;;;23.72;35.21
58622;BME280;44389;51.578;5.456;2023-05-20T12:06:02;101928.00;;;23.38;36.04
58622;BME280;44389;51.578;5.456;2023-05-20T12:08:28;101915.88;;;23.09;36.41
58622;BME280;44389;51.578;5.456;2023-05-20T12:10:53;101920.56;;;23.95;35.06
58622;BME280;44389;51.578;5.456;2023-05-20T12:13:18;101916.66;;;24.33;35.40
58622;BME280;44389;51.578;5.456;2023-05-20T12:15:43;101921.25;;;24.16;35.88
58622;BME280;44389;51.578;5.456;2023-05-20T12:18:09;101924.03;;;24.00;35.76
58622;BME280;44389;51.578;5.456;2023-05-20T12:20:35;101918.34;;;24.41;34.56
58622;BME280;44389;51.578;5.456;2023-05-20T12:23:00;101912.09;;;24.49;35.16
58622;BME280;44389;51.578;5.456;2023-05-20T12:25:26;101900.84;;;24.33;35.28
58622;BME280;44389;51.578;5.456;2023-05-20T12:27:52;101906.75;;;23.62;35.69
58622;BME280;44389;51.578;5.456;2023-05-20T12:30:19;101901.81;;;23.13;38.29
58622;BME280;44389;51.578;5.456;2023-05-20T12:32:44;101906.72;;;23.67;37.42
58622;BME280;44389;51.578;5.456;2023-05-20T12:35:11;101905.31;;;23.18;36.76
58622;BME280;44389;51.578;5.456;2023-05-20T12:37:38;101911.53;;;22.98;37.27
58622;BME280;44389;51.578;5.456;2023-05-20T12:40:04;101905.44;;;22.89;37.94
58622;BME280;44389;51.578;5.456;2023-05-20T12:42:36;101895.09;;;22.53;38.53
58622;BME280;44389;51.578;5.456;2023-05-20T12:45:02;101898.63;;;22.18;39.09
58622;BME280;44389;51.578;5.456;2023-05-20T12:47:27;101904.75;;;22.22;40.28
58622;BME280;44389;51.578;5.456;2023-05-20T12:49:53;101906.50;;;22.44;40.02